createdAt,value
2022-08-29T00:00:18.828Z,15.23
2022-08-29T00:02:49.985Z,15.27
2022-08-29T00:05:19.279Z,15.73
2022-08-29T00:07:51.962Z,15.37
2022-08-29T00:10:20.846Z,15.17
2022-08-29T00:12:49.486Z,16.07
2022-08-29T00:15:18.643Z,15.60
2022-08-29T00:17:47.147Z,15.00
2022-08-29T00:20:20.154Z,14.97
2022-08-29T00:22:49.235Z,15.13
2022-08-29T00:25:18.849Z,14.50
2022-08-29T00:27:49.898Z,15.43
2022-08-29T00:30:20.409Z,15.30
2022-08-29T00:32:49.146Z,14.80
2022-08-29T00:35:19.918Z,14.83
2022-08-29T00:37:48.456Z,15.20
2022-08-29T00:40:21.589Z,14.27
2022-08-29T00:42:50.057Z,14.57
2022-08-29T00:45:19.904Z,14.50
2022-08-29T00:47:52.214Z,14.93
2022-08-29T00:50:32.728Z,14.70
2022-08-29T00:53:02.618Z,14.50
2022-08-29T00:55:34.655Z,14.93
2022-08-29T00:58:07.299Z,14.80
2022-08-29T01:00:36.025Z,14.50
2022-08-29T01:03:05.967Z,14.50
2022-08-29T01:05:36.342Z,14.00
2022-08-29T01:08:05.603Z,14.80
2022-08-29T01:10:54.098Z,14.73
2022-08-29T01:13:27.363Z,14.80
2022-08-29T01:15:56.096Z,15.30
2022-08-29T01:18:25.467Z,15.23
2022-08-29T01:21:09.217Z,15.33
2022-08-29T01:23:42.859Z,15.30
2022-08-29T01:26:13.898Z,15.27
2022-08-29T01:28:44.843Z,14.97
2022-08-29T01:31:37.744Z,15.07
2022-08-29T01:34:04.783Z,14.97
2022-08-29T01:36:36.126Z,15.13
2022-08-29T01:39:04.968Z,14.80
2022-08-29T01:41:35.338Z,14.70
2022-08-29T01:44:10.516Z,15.03
2022-08-29T01:46:39.563Z,15.63
2022-08-29T01:49:10.486Z,15.30
2022-08-29T01:51:39.687Z,15.30
2022-08-29T01:54:09.615Z,14.43
2022-08-29T01:56:41.469Z,15.63
2022-08-29T01:59:12.175Z,15.03
2022-08-29T02:01:44.996Z,15.30
2022-08-29T02:04:13.425Z,15.77
2022-08-29T02:06:41.785Z,15.90
2022-08-29T02:09:11.363Z,16.50
2022-08-29T02:11:41.988Z,16.10
2022-08-29T02:14:19.059Z,15.83
2022-08-29T02:16:48.455Z,15.17
2022-08-29T02:19:17.219Z,15.60
2022-08-29T02:21:45.920Z,15.67
2022-08-29T02:24:25.593Z,15.47
2022-08-29T02:26:58.591Z,16.40
2022-08-29T02:29:37.359Z,16.03
2022-08-29T02:32:07.288Z,17.50
2022-08-29T02:34:37.925Z,16.60
2022-08-29T02:37:07.516Z,16.77
2022-08-29T02:39:36.132Z,16.33
2022-08-29T02:42:06.342Z,16.57
2022-08-29T02:44:35.312Z,16.13
2022-08-29T02:47:03.770Z,16.47
2022-08-29T02:49:32.174Z,16.23
2022-08-29T02:52:00.926Z,16.43
2022-08-29T02:54:29.194Z,16.63
2022-08-29T02:56:57.487Z,16.27
2022-08-29T02:59:27.834Z,16.83
2022-08-29T03:01:56.235Z,16.20
2022-08-29T03:04:24.590Z,15.77
2022-08-29T03:06:53.539Z,16.27
2022-08-29T03:09:21.886Z,16.73
2022-08-29T03:11:52.636Z,16.53
2022-08-29T03:14:20.925Z,15.80
2022-08-29T03:16:50.457Z,15.53
2022-08-29T03:19:19.337Z,15.73
2022-08-29T03:21:47.716Z,15.43
2022-08-29T03:24:16.376Z,15.90
2022-08-29T03:26:56.336Z,14.90
2022-08-29T03:29:26.153Z,15.40
2022-08-29T03:31:58.330Z,15.03
2022-08-29T03:34:27.403Z,14.90
2022-08-29T03:36:55.926Z,16.83
2022-08-29T03:39:24.253Z,15.30
2022-08-29T03:41:52.905Z,16.07
2022-08-29T03:44:21.246Z,16.00
2022-08-29T03:46:49.697Z,17.30
2022-08-29T03:49:19.276Z,17.23
2022-08-29T03:51:50.042Z,16.50
2022-08-29T03:54:18.758Z,16.30
2022-08-29T03:56:47.340Z,16.43
2022-08-29T03:59:16.404Z,17.37
2022-08-29T04:01:47.282Z,16.87
2022-08-29T04:04:36.421Z,16.03
2022-08-29T04:07:07.483Z,15.37
2022-08-29T04:09:35.762Z,16.03
2022-08-29T04:12:04.447Z,16.80
2022-08-29T04:14:32.726Z,17.60
2022-08-29T04:17:01.203Z,16.93
2022-08-29T04:19:29.467Z,15.90
2022-08-29T04:21:57.894Z,15.67
2022-08-29T04:24:27.766Z,15.27
2022-08-29T04:26:56.136Z,15.10
2022-08-29T04:29:24.420Z,15.10
2022-08-29T04:31:52.755Z,14.20
2022-08-29T04:34:21.976Z,14.83
2022-08-29T04:36:50.314Z,14.83
2022-08-29T04:39:20.496Z,13.20
2022-08-29T04:41:50.357Z,11.70
2022-08-29T04:44:18.654Z,10.60
2022-08-29T04:46:47.059Z,9.60
2022-08-29T04:49:15.455Z,9.27
2022-08-29T04:51:43.666Z,9.10
2022-08-29T04:54:12.049Z,9.27
2022-08-29T04:56:47.090Z,8.03
2022-08-29T04:59:18.323Z,8.10
2022-08-29T05:01:48.875Z,8.40
2022-08-29T05:04:17.547Z,8.30
2022-08-29T05:06:46.671Z,7.90
2022-08-29T05:09:19.185Z,8.83
2022-08-29T05:11:47.746Z,8.50
2022-08-29T05:14:17.386Z,8.83
2022-08-29T05:16:45.670Z,8.40
2022-08-29T05:19:16.015Z,8.27
2022-08-29T05:21:44.583Z,7.53
2022-08-29T05:24:13.800Z,8.25
2022-08-29T05:26:45.079Z,8.10
2022-08-29T05:29:14.324Z,7.90
2022-08-29T05:31:45.643Z,8.30
2022-08-29T05:34:33.824Z,8.27
2022-08-29T05:37:03.396Z,8.38
2022-08-29T05:39:31.854Z,7.97
2022-08-29T05:42:00.733Z,7.93
2022-08-29T05:44:35.220Z,7.45
2022-08-29T05:47:06.751Z,7.00
2022-08-29T05:49:37.537Z,9.38
2022-08-29T05:52:06.701Z,9.40
2022-08-29T05:54:38.026Z,8.38
2022-08-29T05:57:07.605Z,8.45
2022-08-29T05:59:36.845Z,7.72
2022-08-29T06:02:07.785Z,7.47
2022-08-29T06:04:36.379Z,8.15
2022-08-29T06:07:05.894Z,7.57
2022-08-29T06:09:34.706Z,8.05
2022-08-29T06:12:03.093Z,9.35
2022-08-29T06:14:31.604Z,8.40
2022-08-29T06:17:00.073Z,8.90
2022-08-29T06:19:34.729Z,8.18
2022-08-29T06:22:09.733Z,7.55
2022-08-29T06:24:39.765Z,8.05
2022-08-29T06:27:08.099Z,8.30
2022-08-29T06:29:43.142Z,7.57
2022-08-29T06:32:12.505Z,7.47
2022-08-29T06:34:42.417Z,7.90
2022-08-29T06:37:11.228Z,8.27
2022-08-29T06:39:39.956Z,8.68
2022-08-29T06:42:08.478Z,8.60
2022-08-29T06:44:40.193Z,9.18
2022-08-29T06:47:10.936Z,7.63
2022-08-29T06:49:39.258Z,8.13
2022-08-29T06:52:08.976Z,7.43
2022-08-29T06:54:37.374Z,7.10
2022-08-29T06:57:06.437Z,8.50
2022-08-29T06:59:34.775Z,8.20
2022-08-29T07:02:03.203Z,9.32
2022-08-29T07:04:32.758Z,8.23
2022-08-29T07:07:02.042Z,8.30
2022-08-29T07:09:32.389Z,8.10
2022-08-29T07:12:00.767Z,8.40
2022-08-29T07:14:29.066Z,8.25
2022-08-29T07:16:57.676Z,8.40
2022-08-29T07:19:26.035Z,8.13
2022-08-29T07:21:58.119Z,7.80
2022-08-29T07:24:26.866Z,8.75
2022-08-29T07:26:56.724Z,8.73
2022-08-29T07:29:25.039Z,8.43
2022-08-29T07:31:53.855Z,7.70
2022-08-29T07:34:22.766Z,8.48
2022-08-29T07:36:51.136Z,8.10
2022-08-29T07:39:22.137Z,8.73
2022-08-29T07:41:50.975Z,8.10
2022-08-29T07:44:20.613Z,8.60
2022-08-29T07:46:49.653Z,8.55
2022-08-29T07:49:17.970Z,8.77
2022-08-29T07:51:46.234Z,7.85
2022-08-29T07:54:16.694Z,8.57
2022-08-29T07:56:45.704Z,9.00
2022-08-29T07:59:14.455Z,8.60
2022-08-29T08:01:45.356Z,8.75
2022-08-29T08:04:14.077Z,10.90
2022-08-29T08:06:45.227Z,13.20
2022-08-29T08:09:15.366Z,15.25
2022-08-29T08:11:44.196Z,11.73
2022-08-29T08:14:13.865Z,9.40
2022-08-29T08:16:44.835Z,9.23
2022-08-29T08:19:14.346Z,9.13
2022-08-29T08:21:49.382Z,12.95
2022-08-29T08:24:19.997Z,17.63
2022-08-29T08:26:48.990Z,12.95
2022-08-29T08:29:17.499Z,10.30
2022-08-29T08:31:48.936Z,13.30
2022-08-29T08:34:18.005Z,16.10
2022-08-29T08:36:47.377Z,13.30
2022-08-29T08:39:16.049Z,18.00
2022-08-29T08:41:53.535Z,14.02
2022-08-29T08:44:59.035Z,18.33
2022-08-29T08:47:33.434Z,13.73
2022-08-29T08:50:07.837Z,10.32
2022-08-29T08:52:42.907Z,9.32
2022-08-29T08:55:28.299Z,9.40
2022-08-29T08:58:06.507Z,13.82
2022-08-29T09:00:43.166Z,9.98
2022-08-29T09:03:26.864Z,8.70
2022-08-29T09:06:08.299Z,8.48
2022-08-29T09:08:48.447Z,8.48
2022-08-29T09:11:23.818Z,8.65
2022-08-29T09:14:01.055Z,9.40
2022-08-29T09:16:34.778Z,10.68
2022-08-29T09:19:08.254Z,12.52
2022-08-29T09:21:44.994Z,8.32
2022-08-29T09:24:21.835Z,8.18
2022-08-29T09:26:50.653Z,8.23
2022-08-29T09:29:21.128Z,8.40
2022-08-29T09:32:08.458Z,8.73
2022-08-29T09:35:07.545Z,9.18
2022-08-29T09:37:33.462Z,8.95
2022-08-29T09:40:07.300Z,9.60
2022-08-29T09:42:37.775Z,11.90
2022-08-29T09:45:18.915Z,10.55
2022-08-29T09:47:47.374Z,9.30
2022-08-29T09:50:26.204Z,9.52
2022-08-29T09:52:56.338Z,8.98
2022-08-29T09:55:29.806Z,8.57
2022-08-29T09:58:02.441Z,8.82
2022-08-29T10:00:35.527Z,9.30
2022-08-29T10:03:06.633Z,8.13
2022-08-29T10:05:44.514Z,8.20
2022-08-29T10:08:30.594Z,8.43
2022-08-29T10:11:00.803Z,8.35
2022-08-29T10:13:36.116Z,8.10
2022-08-29T10:16:13.982Z,8.15
2022-08-29T10:18:48.072Z,7.85
2022-08-29T10:21:37.099Z,7.75
2022-08-29T10:24:28.536Z,7.75
2022-08-29T10:27:06.546Z,7.60
2022-08-29T10:29:56.266Z,7.80
2022-08-29T10:32:44.536Z,7.90
2022-08-29T10:35:18.266Z,7.68
2022-08-29T10:37:55.074Z,7.97
2022-08-29T10:40:29.429Z,8.00
2022-08-29T10:43:17.714Z,8.32
2022-08-29T10:45:58.086Z,8.00
2022-08-29T10:48:31.443Z,8.00
2022-08-29T10:51:17.294Z,8.63
2022-08-29T10:53:52.008Z,8.77
2022-08-29T10:56:23.945Z,8.38
2022-08-29T10:59:04.285Z,8.25
2022-08-29T11:01:36.447Z,8.70
2022-08-29T11:04:17.976Z,8.20
2022-08-29T11:06:55.357Z,8.25
2022-08-29T11:09:30.876Z,8.10
2022-08-29T11:12:09.086Z,8.32
2022-08-29T11:14:41.827Z,8.30
2022-08-29T11:17:14.644Z,9.07
2022-08-29T11:19:59.089Z,8.90
2022-08-29T11:22:32.434Z,8.10
2022-08-29T11:25:08.874Z,8.40
2022-08-29T11:27:47.218Z,9.05
2022-08-29T11:30:21.613Z,8.80
2022-08-29T11:33:00.836Z,8.32
2022-08-29T11:35:41.993Z,8.18
2022-08-29T11:38:42.547Z,8.32
2022-08-29T11:41:28.910Z,9.07
2022-08-29T11:44:08.555Z,8.02
2022-08-29T11:46:43.542Z,8.27
2022-08-29T11:49:28.578Z,9.02
2022-08-29T11:51:59.537Z,9.23
2022-08-29T11:54:52.138Z,8.63
2022-08-29T11:58:03.860Z,9.38
2022-08-29T12:00:51.354Z,9.43
2022-08-29T12:03:53.844Z,9.90
2022-08-29T12:06:45.085Z,9.15
2022-08-29T12:09:41.019Z,8.73
2022-08-29T12:12:20.237Z,8.40
2022-08-29T12:14:50.130Z,9.25
2022-08-29T12:18:00.796Z,8.60
2022-08-29T12:20:44.435Z,8.40
2022-08-29T12:23:36.254Z,8.77
2022-08-29T12:26:23.078Z,8.80
2022-08-29T12:29:00.199Z,8.05
2022-08-29T12:32:18.845Z,8.35
2022-08-29T12:35:16.485Z,9.20
2022-08-29T12:38:03.292Z,8.85
2022-08-29T12:40:53.917Z,9.13
2022-08-29T12:43:35.836Z,9.05
2022-08-29T12:46:09.685Z,9.07
2022-08-29T12:48:43.236Z,9.30
2022-08-29T12:51:35.794Z,9.85
2022-08-29T12:54:04.236Z,9.43
2022-08-29T12:56:34.528Z,8.93
2022-08-29T12:59:06.086Z,9.57
2022-08-29T13:01:38.490Z,9.18
2022-08-29T13:04:14.803Z,9.90
2022-08-29T13:06:55.476Z,9.82
2022-08-29T13:09:29.253Z,9.85
2022-08-29T13:12:12.497Z,9.52
2022-08-29T13:14:57.445Z,8.43
2022-08-29T13:17:28.916Z,9.45
2022-08-29T13:20:34.226Z,9.05
2022-08-29T13:23:24.767Z,9.10
2022-08-29T13:25:57.323Z,9.13
2022-08-29T13:28:31.797Z,10.00
2022-08-29T13:31:32.434Z,9.45
2022-08-29T13:34:26.887Z,10.07
2022-08-29T13:37:02.229Z,9.52
2022-08-29T13:39:41.347Z,9.40
2022-08-29T13:42:32.684Z,8.98
2022-08-29T13:45:10.412Z,9.25
2022-08-29T13:47:56.386Z,10.07
2022-08-29T13:50:25.927Z,10.70
2022-08-29T13:52:54.993Z,9.13
2022-08-29T13:55:25.306Z,9.15
2022-08-29T13:57:55.715Z,7.90
2022-08-29T14:00:32.465Z,9.15
2022-08-29T14:03:09.306Z,9.07
2022-08-29T14:05:38.818Z,9.25
2022-08-29T14:08:07.886Z,8.73
2022-08-29T14:10:37.517Z,10.20
2022-08-29T14:13:06.757Z,9.57
2022-08-29T14:15:35.476Z,9.80
2022-08-29T14:18:05.500Z,9.93
2022-08-29T14:20:33.904Z,9.88
2022-08-29T14:23:02.279Z,10.77
2022-08-29T14:25:30.924Z,10.05
2022-08-29T14:28:00.716Z,10.25
2022-08-29T14:30:29.124Z,9.93
2022-08-29T14:32:57.376Z,10.35
2022-08-29T14:35:31.497Z,9.70
2022-08-29T14:38:01.062Z,9.15
2022-08-29T14:40:30.541Z,10.10
2022-08-29T14:43:00.742Z,10.20
2022-08-29T14:45:30.788Z,10.57
2022-08-29T14:48:00.363Z,9.95
2022-08-29T14:50:28.822Z,10.10
2022-08-29T14:52:57.267Z,9.27
2022-08-29T14:55:25.814Z,10.20
2022-08-29T14:57:54.409Z,11.23
2022-08-29T15:00:27.687Z,10.02
2022-08-29T15:02:56.741Z,9.80
2022-08-29T15:05:25.589Z,9.88
2022-08-29T15:07:53.978Z,10.32
2022-08-29T15:10:25.639Z,9.60
2022-08-29T15:12:54.744Z,9.52
2022-08-29T15:15:29.502Z,9.60
2022-08-29T15:17:58.813Z,9.88
2022-08-29T15:20:36.241Z,9.63
2022-08-29T15:23:06.023Z,9.95
2022-08-29T15:25:34.383Z,9.82
2022-08-29T15:28:03.196Z,10.18
2022-08-29T15:30:33.312Z,10.35
2022-08-29T15:33:01.635Z,10.88
2022-08-29T15:35:30.147Z,11.40
2022-08-29T15:37:58.473Z,10.63
2022-08-29T15:40:27.198Z,10.75
2022-08-29T15:42:55.650Z,10.35
2022-08-29T15:45:23.996Z,10.43
2022-08-29T15:47:54.136Z,10.70
2022-08-29T15:50:24.477Z,10.93
2022-08-29T15:52:53.584Z,11.60
2022-08-29T15:55:22.505Z,10.52
2022-08-29T15:57:52.287Z,10.27
2022-08-29T16:00:30.421Z,10.98
2022-08-29T16:03:03.369Z,9.73
2022-08-29T16:05:33.334Z,9.65
2022-08-29T16:08:02.337Z,9.88
2022-08-29T16:10:31.374Z,10.15
2022-08-29T16:13:00.245Z,10.20
2022-08-29T16:15:31.254Z,10.57
2022-08-29T16:18:02.285Z,11.73
2022-08-29T16:20:32.021Z,10.63
2022-08-29T16:23:01.497Z,10.50
2022-08-29T16:25:31.840Z,11.38
2022-08-29T16:28:01.437Z,11.93
2022-08-29T16:30:32.047Z,12.13
2022-08-29T16:33:02.136Z,12.27
2022-08-29T16:35:30.606Z,12.52
2022-08-29T16:38:03.097Z,11.63
2022-08-29T16:40:32.691Z,12.10
2022-08-29T16:43:02.759Z,11.32
2022-08-29T16:45:31.775Z,11.07
2022-08-29T16:48:01.424Z,11.77
2022-08-29T16:50:32.745Z,11.57
2022-08-29T16:53:02.167Z,10.50
2022-08-29T16:55:31.287Z,10.40
2022-08-29T16:58:31.925Z,11.70
2022-08-29T17:01:01.362Z,12.07
2022-08-29T17:03:31.036Z,12.25
2022-08-29T17:05:59.505Z,11.43
2022-08-29T17:08:26.747Z,11.32
2022-08-29T17:10:53.974Z,11.48
2022-08-29T17:13:21.204Z,10.38
2022-08-29T17:15:48.526Z,10.20
2022-08-29T17:18:17.213Z,9.90
2022-08-29T17:20:48.449Z,10.23
2022-08-29T17:23:17.119Z,10.73
2022-08-29T17:25:45.502Z,11.15
2022-08-29T17:28:18.130Z,11.95
2022-08-29T17:30:48.775Z,12.43
2022-08-29T17:33:17.534Z,12.17
2022-08-29T17:35:47.950Z,12.13
2022-08-29T17:38:17.059Z,12.63
2022-08-29T17:40:47.502Z,12.05
2022-08-29T17:43:19.429Z,12.48
2022-08-29T17:45:48.590Z,12.73
2022-08-29T17:48:17.571Z,12.43
2022-08-29T17:50:47.507Z,12.00
2022-08-29T17:53:16.356Z,11.27
2022-08-29T17:55:44.715Z,10.88
2022-08-29T17:58:13.874Z,9.97
2022-08-29T18:00:42.314Z,10.47
2022-08-29T18:03:10.662Z,10.67
2022-08-29T18:05:39.250Z,11.25
2022-08-29T18:08:08.988Z,11.60
2022-08-29T18:10:38.574Z,11.52
2022-08-29T18:13:06.972Z,11.48
2022-08-29T18:15:35.673Z,12.75
2022-08-29T18:18:05.394Z,13.02
2022-08-29T18:20:33.786Z,12.47
2022-08-29T18:23:02.188Z,12.07
2022-08-29T18:25:32.050Z,11.97
2022-08-29T18:28:00.355Z,12.50
2022-08-29T18:30:29.078Z,12.53
2022-08-29T18:32:57.446Z,13.30
2022-08-29T18:35:25.909Z,13.73
2022-08-29T18:37:54.439Z,13.53
2022-08-29T18:40:23.233Z,13.33
2022-08-29T18:42:53.708Z,13.60
2022-08-29T18:45:22.215Z,14.37
2022-08-29T18:47:50.724Z,13.97
2022-08-29T18:50:37.614Z,14.47
2022-08-29T18:53:11.398Z,13.23
2022-08-29T18:55:40.677Z,14.60
2022-08-29T18:58:11.526Z,13.80
2022-08-29T19:00:39.960Z,15.30
2022-08-29T19:03:08.327Z,15.27
2022-08-29T19:05:38.103Z,16.67
2022-08-29T19:08:07.096Z,17.20
2022-08-29T19:10:35.573Z,17.03
2022-08-29T19:13:07.842Z,17.37
2022-08-29T19:15:41.380Z,19.43
2022-08-29T19:18:11.557Z,17.73
2022-08-29T19:20:58.995Z,15.63
2022-08-29T19:23:27.685Z,15.40
2022-08-29T19:25:56.259Z,14.47
2022-08-29T19:28:25.045Z,14.90
2022-08-29T19:30:55.491Z,15.13
2022-08-29T19:33:24.620Z,15.03
2022-08-29T19:35:53.736Z,15.83
2022-08-29T19:38:24.296Z,15.60
2022-08-29T19:40:57.095Z,16.30
2022-08-29T19:43:27.785Z,15.07
2022-08-29T19:45:59.143Z,15.50
2022-08-29T19:48:28.865Z,15.23
2022-08-29T19:50:58.376Z,14.17
2022-08-29T19:53:27.211Z,14.63
2022-08-29T19:55:56.468Z,14.67
2022-08-29T19:58:31.932Z,14.80
2022-08-29T20:01:03.017Z,15.10
2022-08-29T20:03:32.199Z,14.10
2022-08-29T20:06:05.758Z,14.73
2022-08-29T20:08:36.233Z,14.67
2022-08-29T20:11:06.594Z,14.13
2022-08-29T20:13:36.342Z,15.23
2022-08-29T20:16:12.058Z,14.47
2022-08-29T20:18:41.492Z,14.33
2022-08-29T20:21:10.530Z,14.53
2022-08-29T20:23:41.397Z,13.23
2022-08-29T20:26:17.574Z,13.63
2022-08-29T20:28:45.962Z,13.30
2022-08-29T20:31:16.590Z,13.10
2022-08-29T20:33:47.425Z,13.17
2022-08-29T20:36:33.696Z,12.80
2022-08-29T20:39:08.473Z,13.40
2022-08-29T20:41:36.986Z,13.80
2022-08-29T20:44:09.885Z,13.53
2022-08-29T20:46:43.429Z,14.23
2022-08-29T20:49:14.466Z,13.77
2022-08-29T20:51:44.530Z,13.80
2022-08-29T20:54:14.125Z,14.43
2022-08-29T20:56:42.558Z,14.43
2022-08-29T20:59:11.446Z,15.10
2022-08-29T21:01:40.353Z,15.60
2022-08-29T21:04:28.605Z,14.20
2022-08-29T21:06:58.837Z,14.53
2022-08-29T21:09:27.687Z,14.60
2022-08-29T21:11:56.536Z,14.70
2022-08-29T21:14:27.155Z,14.30
2022-08-29T21:16:56.779Z,14.20
2022-08-29T21:19:29.923Z,14.30
2022-08-29T21:21:59.976Z,14.87
2022-08-29T21:24:28.909Z,14.03
2022-08-29T21:26:58.056Z,14.27
2022-08-29T21:29:26.547Z,14.00
2022-08-29T21:31:55.048Z,14.73
2022-08-29T21:34:24.166Z,14.80
2022-08-29T21:36:54.457Z,14.43
2022-08-29T21:39:28.435Z,14.03
2022-08-29T21:42:00.953Z,13.40
2022-08-29T21:44:31.721Z,13.13
2022-08-29T21:47:00.252Z,13.17
2022-08-29T21:49:30.352Z,13.57
2022-08-29T21:52:00.836Z,13.10
2022-08-29T21:54:29.243Z,13.07
2022-08-29T21:56:57.577Z,12.57
2022-08-29T21:59:28.369Z,12.60
2022-08-29T22:01:57.179Z,12.97
2022-08-29T22:04:28.560Z,13.40
2022-08-29T22:07:00.100Z,12.33
2022-08-29T22:09:29.025Z,12.93
2022-08-29T22:11:57.434Z,12.83
2022-08-29T22:14:46.726Z,12.50
2022-08-29T22:17:15.427Z,12.77
2022-08-29T22:19:43.855Z,13.33
2022-08-29T22:22:13.436Z,12.77
2022-08-29T22:24:41.850Z,13.33
2022-08-29T22:27:10.247Z,13.47
2022-08-29T22:29:38.642Z,13.57
2022-08-29T22:32:07.060Z,13.10
2022-08-29T22:34:35.496Z,13.07
2022-08-29T22:37:03.775Z,13.63
2022-08-29T22:39:33.417Z,12.90
2022-08-29T22:42:01.816Z,13.80
2022-08-29T22:47:19.943Z,13.70
2022-08-29T22:49:48.338Z,12.70
2022-08-29T22:52:16.654Z,13.70
2022-08-29T22:54:47.105Z,13.47
2022-08-29T22:57:17.825Z,13.27
2022-08-29T22:59:47.591Z,13.00
2022-08-29T23:02:16.537Z,13.13
2022-08-29T23:04:45.228Z,13.00
2022-08-29T23:07:14.084Z,13.00
2022-08-29T23:09:43.245Z,14.03
2022-08-29T23:12:14.552Z,13.80
2022-08-29T23:14:46.429Z,14.87
2022-08-29T23:17:15.566Z,14.43
2022-08-29T23:19:44.725Z,14.00
2022-08-29T23:22:14.773Z,14.93
2022-08-29T23:24:53.952Z,15.07
2022-08-29T23:27:29.513Z,14.33
2022-08-29T23:29:58.800Z,14.57
2022-08-29T23:32:27.835Z,15.00
2022-08-29T23:34:56.899Z,14.77
2022-08-29T23:37:25.333Z,13.67
2022-08-29T23:39:53.806Z,13.83
2022-08-29T23:42:22.427Z,13.73
2022-08-29T23:44:52.059Z,13.20
2022-08-29T23:47:20.688Z,14.33
2022-08-29T23:49:49.145Z,15.10
2022-08-29T23:52:17.416Z,14.13
2022-08-29T23:54:45.749Z,14.40
2022-08-29T23:57:14.004Z,13.93
